Time;durP1;ratioP1;P1;durP2;ratioP2;P2;SDS_P1;SDS_P2;PMS_P1;PMS_P2;Temp;Humidity;BMP_temperature;BMP_pressure;BME280_temperature;BME280_humidity;BME280_pressure;Samples;Min_cycle;Max_cycle;Signal;HPM_P1;HPM_P2
2023/04/28 00:01:11;;;;;;;;;;;;;;;-144.99;87.78;52403.25;5014158;28;19925;-67
2023/04/28 00:03:37;;;;;;;;;;;;;;;-144.99;87.72;52391.03;5016066;28;20348;-66
2023/04/28 00:06:04;;;;;;;;;;;;;;;-144.99;87.72;52435.88;5017541;28;20024;-67
2023/04/28 00:08:31;;;;;;;;;;;;;;;-144.99;87.72;52368.59;5010484;28;19925;-68
2023/04/28 00:10:57;;;;;;;;;;;;;;;-144.99;87.67;52413.44;5009800;28;20406;-68
2023/04/28 00:13:25;;;;;;;;;;;;;;;-144.99;87.55;52391.03;5009684;28;20545;-68
2023/04/28 00:15:52;;;;;;;;;;;;;;;-144.99;87.71;52446.06;5010733;28;19928;-68
2023/04/28 00:18:19;;;;;;;;;;;;;;;-144.99;87.62;52462.34;5009374;28;19930;-68
2023/04/28 00:20:45;;;;;;;;;;;;;;;-144.99;87.50;52403.25;5011732;28;20393;-68
2023/04/28 00:23:12;;;;;;;;;;;;;;;-144.99;87.86;52427.72;5013311;28;20204;-68
2023/04/28 00:25:38;;;;;;;;;;;;;;;-144.99;87.86;52407.31;5023013;28;19929;-67
2023/04/28 00:28:08;;;;;;;;;;;;;;;-144.99;87.88;52431.78;5009120;28;20015;-69
2023/04/28 00:30:35;;;;;;;;;;;;;;;-144.99;89.90;52466.44;5011749;28;19933;-68
2023/04/28 00:33:02;;;;;;;;;;;;;;;-144.99;89.51;52452.16;5016976;28;19969;-68
2023/04/28 00:35:28;;;;;;;;;;;;;;;-144.99;90.33;52439.94;5014776;28;19996;-69
2023/04/28 00:37:55;;;;;;;;;;;;;;;-144.99;89.92;52435.88;5016995;28;19972;-69
2023/04/28 00:40:21;;;;;;;;;;;;;;;-144.99;89.77;52480.72;5010731;28;19933;-68
2023/04/28 00:42:48;;;;;;;;;;;;;;;-144.99;90.15;52441.97;5013809;28;19998;-68
2023/04/28 00:45:14;;;;;;;;;;;;;;;-144.99;90.86;52448.09;5012004;28;19934;-70
2023/04/28 00:47:43;;;;;;;;;;;;;;;-144.99;91.51;52417.53;5016610;28;20481;-68
2023/04/28 00:50:10;;;;;;;;;;;;;;;-144.99;91.62;52476.63;5013786;28;20022;-69
2023/04/28 00:52:36;;;;;;;;;;;;;;;-144.99;91.92;52450.13;5009248;28;20419;-69
2023/04/28 00:55:03;;;;;;;;;;;;;;;-144.99;90.58;52415.47;5023549;28;19941;-69
2023/04/28 00:57:31;;;;;;;;;;;;;;;-144.99;90.26;52448.09;5011115;28;19960;-69
2023/04/28 00:59:57;;;;;;;;;;;;;;;-144.99;90.06;52382.88;5013295;28;20002;-69
2023/04/28 01:02:24;;;;;;;;;;;;;;;-144.99;90.25;52439.94;5014457;28;19984;-70
2023/04/28 01:04:53;;;;;;;;;;;;;;;-144.99;90.11;52448.09;5010865;28;20028;-70
2023/04/28 01:07:19;;;;;;;;;;;;;;;-144.99;90.69;52403.25;5012604;28;19925;-70
2023/04/28 01:09:46;;;;;;;;;;;;;;;-144.99;91.12;52468.47;5010049;28;19935;-69
2023/04/28 01:12:13;;;;;;;;;;;;;;;-144.99;91.12;52456.25;5011228;28;20363;-76
2023/04/28 01:14:40;;;;;;;;;;;;;;;-144.99;91.15;52441.97;5016935;28;19929;-76
2023/04/28 01:17:07;;;;;;;;;;;;;;;-144.99;91.38;52435.88;5008493;28;20011;-76
2023/04/28 01:19:34;;;;;;;;;;;;;;;-144.99;91.63;52448.09;5013808;28;20436;-66
2023/04/28 01:22:03;;;;;;;;;;;;;;;-144.99;91.91;52425.66;5008978;28;19972;-66
2023/04/28 01:24:31;;;;;;;;;;;;;;;-144.99;92.03;52427.72;5008563;28;20027;-66
2023/04/28 01:26:57;;;;;;;;;;;;;;;-144.99;92.32;52431.78;5008963;28;19925;-65
2023/04/28 01:29:24;;;;;;;;;;;;;;;-144.99;92.47;52417.53;5008293;28;20298;-66
2023/04/28 01:31:50;;;;;;;;;;;;;;;-144.99;92.69;52431.78;5015365;28;19935;-66
2023/04/28 01:34:17;;;;;;;;;;;;;;;-144.99;93.83;52415.47;5008127;28;20415;-67
2023/04/28 01:36:44;;;;;;;;;;;;;;;-144.99;94.25;52386.94;5008715;28;19966;-67
2023/04/28 01:39:10;;;;;;;;;;;;;;;-144.99;94.16;52454.22;5008536;28;20032;-66
2023/04/28 01:41:38;;;;;;;;;;;;;;;-144.99;94.22;52456.25;5009712;28;20340;-66
2023/04/28 01:44:06;;;;;;;;;;;;;;;-144.99;94.08;52415.47;5008722;28;19987;-66
2023/04/28 01:46:32;;;;;;;;;;;;;;;-144.99;94.24;52411.41;5013062;28;19930;-67
2023/04/28 01:49:00;;;;;;;;;;;;;;;-144.99;94.36;52407.31;5009499;28;20453;-66
2023/04/28 01:51:26;;;;;;;;;;;;;;;-144.99;94.17;52441.97;5007869;28;20406;-66
2023/04/28 01:53:53;;;;;;;;;;;;;;;-144.99;94.24;52454.22;5015099;28;20348;-69
2023/04/28 01:56:19;;;;;;;;;;;;;;;-144.99;94.38;52411.41;5019831;28;19933;-69
2023/04/28 01:58:47;;;;;;;;;;;;;;;-144.99;94.58;52435.88;5007650;28;19941;-69
2023/04/28 02:01:14;;;;;;;;;;;;;;;-144.99;94.85;52472.56;5013561;28;19965;-69
2023/04/28 02:03:40;;;;;;;;;;;;;;;-144.99;95.68;52419.56;5016063;28;20237;-70
2023/04/28 02:06:07;;;;;;;;;;;;;;;-144.99;97.26;52464.41;5007750;28;20041;-69
2023/04/28 02:08:33;;;;;;;;;;;;;;;-144.99;97.91;52415.47;5010735;28;19969;-68
2023/04/28 02:11:00;;;;;;;;;;;;;;;-144.99;98.27;52456.25;5007431;28;20367;-68
2023/04/28 02:13:27;;;;;;;;;;;;;;;-144.99;98.09;52468.47;5014614;28;20015;-68
2023/04/28 02:15:56;;;;;;;;;;;;;;;-144.99;98.51;52452.16;5012630;28;20030;-68
2023/04/28 02:18:22;;;;;;;;;;;;;;;-144.99;96.91;52431.78;5010939;28;20019;-67
2023/04/28 02:20:49;;;;;;;;;;;;;;;-144.99;96.42;52427.72;5011542;28;19937;-66
2023/04/28 02:23:15;;;;;;;;;;;;;;;-144.99;96.35;52446.06;5015748;28;19925;-66
2023/04/28 02:25:42;;;;;;;;;;;;;;;-144.99;97.75;52452.16;5010376;28;20006;-65
2023/04/28 02:28:08;;;;;;;;;;;;;;;-144.99;96.88;52454.22;5011001;28;20039;-71
2023/04/28 02:30:35;;;;;;;;;;;;;;;-144.99;96.87;52421.59;5009984;28;20150;-72
2023/04/28 02:33:03;;;;;;;;;;;;;;;-144.99;99.28;52431.78;5015534;28;19940;-71
2023/04/28 02:35:29;;;;;;;;;;;;;;;-144.99;99.01;52466.44;5007827;28;20429;-73
2023/04/28 02:37:56;;;;;;;;;;;;;;;-144.99;98.15;52456.25;5016493;28;19975;-74
2023/04/28 02:40:22;;;;;;;;;;;;;;;-144.99;97.14;52378.78;5010744;28;19932;-74
2023/04/28 02:42:49;;;;;;;;;;;;;;;-144.99;98.01;52407.31;5007129;28;20075;-74
2023/04/28 02:45:15;;;;;;;;;;;;;;;-144.99;98.43;52458.28;5007101;28;20064;-72
2023/04/28 02:47:42;;;;;;;;;;;;;;;-144.99;98.10;52431.78;5013925;28;19948;-71
2023/04/28 02:50:10;;;;;;;;;;;;;;;-144.99;98.13;52423.63;5009165;28;19957;-72
2023/04/28 02:52:37;;;;;;;;;;;;;;;-144.99;97.90;52448.09;5007542;28;19925;-71
2023/04/28 02:55:06;;;;;;;;;;;;;;;-144.99;97.93;52419.56;5021311;28;20011;-72
2023/04/28 02:57:32;;;;;;;;;;;;;;;-144.99;98.04;52448.09;5006539;28;19995;-71
2023/04/28 02:59:59;;;;;;;;;;;;;;;-144.99;97.79;52427.72;5007117;28;20011;-71
2023/04/28 03:02:26;;;;;;;;;;;;;;;-144.99;97.85;52448.09;5006746;28;19973;-71
2023/04/28 03:04:52;;;;;;;;;;;;;;;-144.99;98.10;52407.31;5006735;28;19980;-69
2023/04/28 03:07:20;;;;;;;;;;;;;;;-144.99;98.04;52419.56;5010776;28;19930;-70
2023/04/28 03:09:47;;;;;;;;;;;;;;;-144.99;98.21;52407.31;5010678;28;19925;-70
2023/04/28 03:12:14;;;;;;;;;;;;;;;-144.99;98.22;52401.22;5017919;28;19932;-70
2023/04/28 03:14:40;;;;;;;;;;;;;;;-144.99;98.21;52464.41;5009926;28;19987;-70
2023/04/28 03:17:07;;;;;;;;;;;;;;;-144.99;97.97;52435.88;5014849;28;20382;-70
2023/04/28 03:19:33;;;;;;;;;;;;;;;-144.99;98.36;52456.25;5009400;28;20421;-70
2023/04/28 03:22:00;;;;;;;;;;;;;;;-144.99;98.03;52439.94;5013342;28;19972;-69
2023/04/28 03:24:27;;;;;;;;;;;;;;;-144.99;97.83;52456.25;5015248;28;20297;-69
2023/04/28 03:26:54;;;;;;;;;;;;;;;-144.99;97.88;52427.72;5009373;28;19980;-69
2023/04/28 03:29:23;;;;;;;;;;;;;;;-144.99;97.71;52448.09;5009677;28;19930;-68
2023/04/28 03:31:49;;;;;;;;;;;;;;;-144.99;100.00;52431.78;5022201;28;19979;-69
2023/04/28 03:37:00;;;;;;;;;;;;;;;-144.99;100.00;52419.56;5125435;27;19937;-75
2023/04/28 03:39:27;;;;;;;;;;;;;;;-144.99;100.00;52419.56;5095636;28;19924;-73
2023/04/28 03:41:53;;;;;;;;;;;;;;;-144.99;100.00;52435.88;5101901;28;20051;-73
2023/04/28 03:44:20;;;;;;;;;;;;;;;-144.99;100.00;52446.06;5088189;28;19933;-73
2023/04/28 03:46:47;;;;;;;;;;;;;;;-144.99;100.00;52452.16;5087591;28;20027;-73
2023/04/28 03:49:14;;;;;;;;;;;;;;;-144.99;100.00;52452.16;5092892;28;19924;-70
2023/04/28 03:51:40;;;;;;;;;;;;;;;-144.99;100.00;52448.09;5100261;28;19935;-70
2023/04/28 03:54:08;;;;;;;;;;;;;;;-144.99;100.00;52439.94;5086510;28;20038;-70
2023/04/28 03:56:35;;;;;;;;;;;;;;;-144.99;100.00;52427.72;5090812;28;20020;-70
2023/04/28 03:59:02;;;;;;;;;;;;;;;-144.99;100.00;52435.88;5086122;28;19932;-69
2023/04/28 04:01:28;;;;;;;;;;;;;;;-144.99;100.00;52439.94;5092893;28;19928;-69
2023/04/28 04:03:55;;;;;;;;;;;;;;;-144.99;100.00;52448.09;5090477;28;19928;-69
2023/04/28 04:06:21;;;;;;;;;;;;;;;-144.99;100.00;52448.09;5094627;28;19951;-70
2023/04/28 04:08:48;;;;;;;;;;;;;;;-144.99;100.00;52431.78;5092407;28;19928;-69
2023/04/28 04:11:16;;;;;;;;;;;;;;;-144.99;100.00;52460.31;5088937;28;19993;-69
2023/04/28 04:13:42;;;;;;;;;;;;;;;-144.99;100.00;52419.56;5093196;28;19924;-69
2023/04/28 04:16:09;;;;;;;;;;;;;;;-144.99;100.00;52395.09;5093198;28;20169;-68
2023/04/28 04:18:35;;;;;;;;;;;;;;;-144.99;99.32;52407.31;5090568;28;20397;-70
2023/04/28 04:21:02;;;;;;;;;;;;;;;-144.99;99.34;52456.25;5096589;28;19981;-71
2023/04/28 04:23:28;;;;;;;;;;;;;;;-144.99;99.29;52448.09;5103638;28;19923;-71
2023/04/28 04:25:55;;;;;;;;;;;;;;;-144.99;98.33;52429.75;5087496;28;20258;-70
2023/04/28 04:28:23;;;;;;;;;;;;;;;-144.99;98.27;52423.63;5090598;28;20017;-72
2023/04/28 04:30:50;;;;;;;;;;;;;;;-144.99;98.59;52427.72;5090887;28;19967;-73
2023/04/28 04:33:16;;;;;;;;;;;;;;;-144.99;98.46;52431.78;5086844;28;19924;-71
2023/04/28 04:35:43;;;;;;;;;;;;;;;-144.99;98.95;52423.63;5098134;28;19952;-70
2023/04/28 04:38:10;;;;;;;;;;;;;;;-144.99;98.65;52452.16;5083191;28;19963;-69
2023/04/28 04:40:36;;;;;;;;;;;;;;;-144.99;97.79;52419.56;5091284;28;19924;-70
2023/04/28 04:43:03;;;;;;;;;;;;;;;-144.99;98.02;52399.19;5098614;28;19935;-71
2023/04/28 04:45:30;;;;;;;;;;;;;;;-144.99;98.24;52407.31;5092504;28;19929;-71
2023/04/28 04:47:57;;;;;;;;;;;;;;;-144.99;97.58;52407.31;5079237;28;19997;-71
2023/04/28 04:50:24;;;;;;;;;;;;;;;-144.99;97.24;52452.16;5078663;28;19978;-73
2023/04/28 04:52:50;;;;;;;;;;;;;;;-144.99;97.76;52419.56;5084884;28;20341;-72
2023/04/28 04:55:17;;;;;;;;;;;;;;;-144.99;97.41;52403.25;5075904;28;20332;-71
2023/04/28 04:57:43;;;;;;;;;;;;;;;-144.99;97.62;52391.03;5075369;28;19973;-61
2023/04/28 05:00:10;;;;;;;;;;;;;;;-144.99;97.33;52419.56;5075875;28;20359;-61
2023/04/28 05:02:38;;;;;;;;;;;;;;;-144.99;95.54;52435.88;5088663;28;19924;-69
2023/04/28 05:05:05;;;;;;;;;;;;;;;-144.99;94.39;52403.25;5088589;28;19928;-69
2023/04/28 05:07:31;;;;;;;;;;;;;;;-144.99;93.43;52439.94;5074714;28;20022;-69
2023/04/28 05:09:58;;;;;;;;;;;;;;;-144.99;92.75;52413.44;5082958;28;20625;-70
2023/04/28 05:12:24;;;;;;;;;;;;;;;-144.99;91.98;52415.47;5080520;28;19929;-69
2023/04/28 05:14:51;;;;;;;;;;;;;;;-144.99;91.69;52401.22;5076981;28;19970;-67
2023/04/28 05:17:17;;;;;;;;;;;;;;;-144.99;91.89;52397.13;4373009;28;10020707;-67
2023/04/28 05:19:45;;;;;;;;;;;;;;;-144.99;91.09;52415.47;5081822;28;19990;-67
2023/04/28 05:22:12;;;;;;;;;;;;;;;-144.99;91.10;52429.75;5082492;28;19931;-67
2023/04/28 05:24:38;;;;;;;;;;;;;;;-144.99;90.45;52372.69;5071509;28;19932;-67
2023/04/28 05:27:05;;;;;;;;;;;;;;;-144.99;89.74;52388.97;5075068;28;19932;-67
2023/04/28 05:29:31;;;;;;;;;;;;;;;-144.99;89.48;52378.78;5071596;28;20461;-67
2023/04/28 05:31:58;;;;;;;;;;;;;;;-144.99;88.90;52429.75;5081268;28;19970;-67
2023/04/28 05:34:25;;;;;;;;;;;;;;;-144.99;88.98;52350.25;5080013;28;20460;-67
2023/04/28 05:36:53;;;;;;;;;;;;;;;-144.99;88.29;52431.78;5069372;28;20003;-67
2023/04/28 05:39:19;;;;;;;;;;;;;;;-144.99;87.99;52403.25;5069379;28;20343;-67
2023/04/28 05:41:46;;;;;;;;;;;;;;;-144.99;87.14;52407.31;5076625;28;19981;-67
2023/04/28 05:44:12;;;;;;;;;;;;;;;-144.99;86.48;52374.72;5073501;28;19928;-67
2023/04/28 05:46:39;;;;;;;;;;;;;;;-144.99;86.14;52395.09;5075896;28;19924;-67
2023/04/28 05:49:05;;;;;;;;;;;;;;;-144.99;85.41;52407.31;5074251;28;19981;-67
2023/04/28 05:51:32;;;;;;;;;;;;;;;-144.99;85.29;52419.56;5070982;28;19932;-67
2023/04/28 05:54:00;;;;;;;;;;;;;;;-144.99;85.45;52419.56;5087033;28;19989;-67
2023/04/28 05:56:27;;;;;;;;;;;;;;;-144.99;84.86;52391.03;5073896;28;20044;-67
2023/04/28 05:58:53;;;;;;;;;;;;;;;-144.99;84.75;52380.84;5066865;28;20591;-66
2023/04/28 06:01:20;;;;;;;;;;;;;;;-144.99;83.50;52370.63;5065874;28;20075;-68
2023/04/28 06:03:46;;;;;;;;;;;;;;;-144.99;83.43;52370.63;5073439;28;20000;-68
2023/04/28 06:06:13;;;;;;;;;;;;;;;-144.99;82.65;52407.31;5075934;28;19928;-69
2023/04/28 06:08:39;;;;;;;;;;;;;;;-144.99;81.95;52380.84;5070730;28;19958;-68
2023/04/28 06:11:07;;;;;;;;;;;;;;;-144.99;80.92;52358.41;5070738;28;20009;-68
2023/04/28 06:13:34;;;;;;;;;;;;;;;-144.99;80.29;52356.38;5065925;28;20087;-67
2023/04/28 06:16:00;;;;;;;;;;;;;;;-144.99;80.27;52358.41;5065747;28;19928;-67
2023/04/28 06:18:29;;;;;;;;;;;;;;;-144.99;80.32;52382.88;5069679;28;20003;-67
2023/04/28 06:20:56;;;;;;;;;;;;;;;-144.99;80.31;52378.78;5069526;28;20198;-67
2023/04/28 06:23:22;;;;;;;;;;;;;;;-144.99;79.87;52340.06;5074144;28;20019;-67
2023/04/28 06:25:49;;;;;;;;;;;;;;;-144.99;79.23;52352.28;5065702;28;20013;-67
2023/04/28 06:28:16;;;;;;;;;;;;;;;-144.99;79.30;52370.63;5079995;28;19969;-68
2023/04/28 06:30:43;;;;;;;;;;;;;;;-144.99;79.18;52366.56;5074613;28;19933;-67
2023/04/28 06:33:10;;;;;;;;;;;;;;;-144.99;78.27;52340.06;5066456;28;19932;-68
2023/04/28 06:35:37;;;;;;;;;;;;;;;-144.99;78.04;52338.03;5068658;28;19928;-68
2023/04/28 06:38:04;;;;;;;;;;;;;;;-144.99;77.39;52350.25;5070405;28;20042;-68
2023/04/28 06:40:31;;;;;;;;;;;;;;;-144.99;76.64;52378.78;5074002;28;20058;-68
2023/04/28 06:42:57;;;;;;;;;;;;;;;-144.99;76.81;52366.56;5070993;28;19960;-68
2023/04/28 06:45:25;;;;;;;;;;;;;;;-144.99;76.83;52374.72;5067959;28;19925;-68
2023/04/28 06:47:54;;;;;;;;;;;;;;;-144.99;76.47;52378.78;5073872;28;19924;-68
2023/04/28 06:50:21;;;;;;;;;;;;;;;-144.99;76.88;52342.09;5069390;28;19928;-69
2023/04/28 06:52:47;;;;;;;;;;;;;;;-144.99;76.79;52354.34;5070330;28;19928;-69
2023/04/28 06:55:15;;;;;;;;;;;;;;;-144.99;76.17;52342.09;4730410;28;10000324;-67
2023/04/28 06:57:42;;;;;;;;;;;;;;;-144.99;75.62;52368.59;5065477;28;19928;-67
2023/04/28 07:00:09;;;;;;;;;;;;;;;-144.99;75.09;52354.34;5070921;28;19929;-67
2023/04/28 07:02:37;;;;;;;;;;;;;;;-144.99;74.72;52409.38;5080979;28;19967;-67
2023/04/28 07:05:04;;;;;;;;;;;;;;;-144.99;74.00;52301.34;5075133;28;19928;-68
2023/04/28 07:07:30;;;;;;;;;;;;;;;-144.99;73.37;52364.53;5079679;28;20013;-68
2023/04/28 07:09:57;;;;;;;;;;;;;;;-144.99;73.34;52329.88;5067905;28;19960;-68
2023/04/28 07:12:24;;;;;;;;;;;;;;;-144.99;73.07;52325.81;5066609;28;19978;-68
2023/04/28 07:14:50;;;;;;;;;;;;;;;-144.99;72.54;52368.59;5064838;28;19970;-68
2023/04/28 07:17:17;;;;;;;;;;;;;;;-144.99;72.07;52338.03;5064025;28;19994;-67
2023/04/28 07:19:45;;;;;;;;;;;;;;;-144.99;71.18;52325.81;5077047;28;19969;-68
2023/04/28 07:22:11;;;;;;;;;;;;;;;-144.99;70.53;52333.94;5075409;28;20456;-68
2023/04/28 07:24:38;;;;;;;;;;;;;;;-144.99;70.53;52348.22;5072067;28;20045;-68
2023/04/28 07:27:04;;;;;;;;;;;;;;;-144.99;70.33;52309.50;5070003;28;19982;-68
2023/04/28 07:29:33;;;;;;;;;;;;;;;-144.99;70.09;52289.13;5068301;28;19932;-69
2023/04/28 07:32:00;;;;;;;;;;;;;;;-144.99;69.82;52354.34;5078385;28;19928;-70
2023/04/28 07:34:26;;;;;;;;;;;;;;;-144.99;69.89;52346.19;5064446;28;19996;-67
2023/04/28 07:36:54;;;;;;;;;;;;;;;-144.99;69.43;52336.00;5070588;28;19928;-68
2023/04/28 07:39:21;;;;;;;;;;;;;;;-144.99;69.38;52313.56;5067925;28;20397;-68
2023/04/28 07:41:47;;;;;;;;;;;;;;;-144.99;68.96;52340.06;5071772;28;19929;-69
2023/04/28 07:44:14;;;;;;;;;;;;;;;-144.99;69.16;52313.56;5068079;28;19974;-69
2023/04/28 07:46:40;;;;;;;;;;;;;;;-144.99;67.76;52329.88;5073534;28;20374;-69
2023/04/28 07:49:07;;;;;;;;;;;;;;;-144.99;67.82;52362.50;5076555;28;19924;-68
2023/04/28 07:51:33;;;;;;;;;;;;;;;-144.99;67.14;52317.66;5067634;28;19924;-68
2023/04/28 07:54:01;;;;;;;;;;;;;;;-144.99;66.29;52301.34;5065829;28;20228;-68
2023/04/28 07:56:28;;;;;;;;;;;;;;;-144.99;66.51;52342.09;5067890;28;20320;-69
2023/04/28 07:58:54;;;;;;;;;;;;;;;-144.99;67.38;52317.66;5071471;28;19932;-69
2023/04/28 08:01:21;;;;;;;;;;;;;;;-144.99;66.95;52325.81;5072319;28;20471;-69
2023/04/28 08:03:48;;;;;;;;;;;;;;;-144.99;66.49;52301.34;5071579;28;20353;-69
2023/04/28 08:06:14;;;;;;;;;;;;;;;-144.99;66.36;52338.03;5072241;28;20313;-70
2023/04/28 08:08:41;;;;;;;;;;;;;;;-144.99;66.21;52305.41;5074590;28;19936;-69
2023/04/28 08:11:09;;;;;;;;;;;;;;;-144.99;65.93;52246.31;5076246;28;19924;-69
2023/04/28 08:13:36;;;;;;;;;;;;;;;-144.99;65.83;52285.03;5079268;28;19929;-70
2023/04/28 08:16:02;;;;;;;;;;;;;;;-144.99;65.75;52287.06;5070984;28;19928;-69
2023/04/28 08:18:29;;;;;;;;;;;;;;;-144.99;65.76;52338.03;5080956;28;19936;-69
2023/04/28 08:20:55;;;;;;;;;;;;;;;-144.99;66.14;52305.41;5068457;28;19929;-69
2023/04/28 08:23:22;;;;;;;;;;;;;;;-144.99;65.57;52293.19;5067150;28;19928;-70
2023/04/28 08:25:50;;;;;;;;;;;;;;;-144.99;65.18;52340.06;5068008;28;19935;-70
2023/04/28 08:28:17;;;;;;;;;;;;;;;-144.99;65.00;52289.13;5080372;28;19928;-69
2023/04/28 08:30:44;;;;;;;;;;;;;;;-144.99;65.09;52329.88;5074700;28;19928;-69
2023/04/28 08:33:11;;;;;;;;;;;;;;;-144.99;64.18;52325.81;5077483;28;19993;-69
2023/04/28 08:35:37;;;;;;;;;;;;;;;-144.99;64.17;52309.50;5074401;28;19928;-69
2023/04/28 08:38:04;;;;;;;;;;;;;;;-144.99;64.34;52280.97;5080770;28;20024;-69
2023/04/28 08:40:31;;;;;;;;;;;;;;;-144.99;64.98;52268.72;5079032;28;20016;-68
2023/04/28 08:42:59;;;;;;;;;;;;;;;-144.99;64.36;52276.88;5073756;28;20784;-69
2023/04/28 08:45:28;;;;;;;;;;;;;;;-144.99;64.24;52321.72;5072954;28;19932;-69
2023/04/28 08:47:55;;;;;;;;;;;;;;;-144.99;64.17;52309.50;5077843;28;19982;-69
2023/04/28 08:50:22;;;;;;;;;;;;;;;-144.99;64.50;52340.06;5076956;28;20455;-69
2023/04/28 08:52:49;;;;;;;;;;;;;;;-144.99;64.78;52301.34;5070607;28;20361;-69
2023/04/28 08:55:16;;;;;;;;;;;;;;;-144.99;64.57;52301.34;5078944;28;19928;-69
2023/04/28 08:57:43;;;;;;;;;;;;;;;-144.99;64.51;52297.25;5085538;28;20208;-69
2023/04/28 09:00:11;;;;;;;;;;;;;;;-144.99;64.50;52289.13;5084511;28;20466;-69
2023/04/28 09:02:40;;;;;;;;;;;;;;;-144.99;64.24;52289.13;5085244;28;20005;-69
2023/04/28 09:05:07;;;;;;;;;;;;;;;-144.99;64.94;52287.06;5081411;28;19955;-70
2023/04/28 09:07:34;;;;;;;;;;;;;;;-144.99;65.05;52280.97;5080755;28;19936;-70
2023/04/28 09:10:17;;;;;;;;;;;;;;;-144.99;64.82;52285.03;5076532;28;19929;-70
2023/04/28 09:12:43;;;;;;;;;;;;;;;-144.99;64.53;52297.25;5074939;28;20006;-70
2023/04/28 09:15:10;;;;;;;;;;;;;;;-144.99;64.50;52289.13;5068092;28;19924;-67
2023/04/28 09:17:49;;;;;;;;;;;;;;;-144.99;64.79;52321.72;5080801;28;19990;-70
2023/04/28 09:20:23;;;;;;;;;;;;;;;-144.99;64.66;52276.88;5079001;28;19985;-70
2023/04/28 09:22:49;;;;;;;;;;;;;;;-144.99;64.33;52264.66;5075798;28;19940;-70
2023/04/28 09:25:16;;;;;;;;;;;;;;;-144.99;63.92;52293.19;5067329;28;19970;-68
2023/04/28 09:27:43;;;;;;;;;;;;;;;-144.99;64.04;52276.88;5070940;28;20611;-70
2023/04/28 09:30:10;;;;;;;;;;;;;;;-144.99;63.97;52280.97;5073188;28;19964;-70
2023/04/28 09:32:37;;;;;;;;;;;;;;;-144.99;63.63;52289.13;5067338;28;19924;-68
2023/04/28 09:35:06;;;;;;;;;;;;;;;-144.99;63.64;52283.00;5067590;28;19932;-68
2023/04/28 09:37:33;;;;;;;;;;;;;;;-144.99;63.88;52248.34;5076796;28;19934;-68
2023/04/28 09:40:03;;;;;;;;;;;;;;;-144.99;64.12;52295.22;5081399;28;20383;-69
2023/04/28 09:42:34;;;;;;;;;;;;;;;-144.99;63.98;52289.13;5066998;28;19982;-69
2023/04/28 09:45:01;;;;;;;;;;;;;;;-144.99;63.80;52280.97;5067511;28;19950;-69
2023/04/28 09:47:28;;;;;;;;;;;;;;;-144.99;63.70;52317.66;5068069;28;19932;-69
2023/04/28 09:49:56;;;;;;;;;;;;;;;-144.99;63.76;52311.53;5073197;28;19936;-69
2023/04/28 09:52:24;;;;;;;;;;;;;;;-144.99;63.87;52301.34;5075663;28;20024;-69
2023/04/28 09:54:51;;;;;;;;;;;;;;;-144.99;64.21;52254.47;5074848;28;19928;-69
2023/04/28 09:57:18;;;;;;;;;;;;;;;-144.99;63.97;52301.34;5084507;28;19939;-69
2023/04/28 09:59:47;;;;;;;;;;;;;;;-144.99;63.78;52293.19;5077293;28;20018;-70
2023/04/28 10:02:14;;;;;;;;;;;;;;;-144.99;63.91;52260.56;5075464;28;19986;-69
2023/04/28 10:04:41;;;;;;;;;;;;;;;-144.99;63.68;52299.31;5083976;28;19925;-69
2023/04/28 10:07:08;;;;;;;;;;;;;;;-144.99;63.49;52319.69;5082252;28;19928;-70
2023/04/28 10:09:37;;;;;;;;;;;;;;;-144.99;64.19;52305.41;5071825;28;19926;-70
2023/04/28 10:12:04;;;;;;;;;;;;;;;-144.99;64.00;52309.50;5077540;28;19936;-70
2023/04/28 10:14:31;;;;;;;;;;;;;;;-144.99;64.52;52291.16;5067490;28;20320;-70
2023/04/28 10:16:59;;;;;;;;;;;;;;;-144.99;64.82;52317.66;5067420;28;20238;-69
2023/04/28 10:19:25;;;;;;;;;;;;;;;-144.99;64.92;52321.72;5067639;28;19924;-69
2023/04/28 10:22:01;;;;;;;;;;;;;;;-144.99;65.32;52325.81;5072539;28;19960;-69
2023/04/28 10:24:29;;;;;;;;;;;;;;;-144.99;65.18;52305.41;5072775;28;20387;-68
2023/04/28 10:27:04;;;;;;;;;;;;;;;-144.99;65.54;52329.88;5069845;28;19933;-68
2023/04/28 10:29:31;;;;;;;;;;;;;;;-144.99;65.44;52319.69;5077992;28;19928;-68
2023/04/28 10:32:17;;;;;;;;;;;;;;;-144.99;65.57;52305.41;5075566;28;20397;-70
2023/04/28 10:34:44;;;;;;;;;;;;;;;-144.99;65.62;52309.50;5066424;28;19997;-70
2023/04/28 10:37:13;;;;;;;;;;;;;;;-144.99;65.59;52321.72;5066954;28;19925;-70
2023/04/28 10:39:40;;;;;;;;;;;;;;;-144.99;65.42;52276.88;5069490;28;19928;-70
2023/04/28 10:42:28;;;;;;;;;;;;;;;-144.99;65.07;52293.19;5074686;28;19959;-70
2023/04/28 10:44:55;;;;;;;;;;;;;;;-144.99;65.24;52305.41;5074054;28;20553;-70
2023/04/28 10:47:21;;;;;;;;;;;;;;;-144.99;65.18;52321.72;5066294;28;19932;-70
2023/04/28 10:50:07;;;;;;;;;;;;;;;-144.99;65.28;52301.34;5072939;28;19928;-70
2023/04/28 10:52:55;;;;;;;;;;;;;;;-144.99;65.50;52311.53;5077473;28;20015;-70
2023/04/28 10:55:35;;;;;;;;;;;;;;;-144.99;65.17;52301.34;5072674;28;19928;-70
2023/04/28 10:58:21;;;;;;;;;;;;;;;-144.99;65.18;52327.84;5068183;28;20018;-69
2023/04/28 11:00:50;;;;;;;;;;;;;;;-144.99;65.42;52317.66;5067317;28;20166;-69
2023/04/28 11:03:47;;;;;;;;;;;;;;;-144.99;65.27;52342.09;5082311;28;19990;-70
2023/04/28 11:06:21;;;;;;;;;;;;;;;-144.99;65.36;52258.53;5016416;28;20423;-70
2023/04/28 11:08:48;;;;;;;;;;;;;;;-144.99;65.02;52289.13;5067327;28;19962;-70
2023/04/28 11:11:15;;;;;;;;;;;;;;;-144.99;64.80;52276.88;5069118;28;20039;-70
2023/04/28 11:13:42;;;;;;;;;;;;;;;-144.99;64.78;52313.56;5074007;28;20554;-70
2023/04/28 11:16:10;;;;;;;;;;;;;;;-144.99;64.73;52317.66;5069366;28;19968;-69
2023/04/28 11:18:48;;;;;;;;;;;;;;;-144.99;64.57;52266.69;5071212;28;19982;-70
2023/04/28 11:21:15;;;;;;;;;;;;;;;-144.99;64.12;52248.34;5068392;28;19993;-69
2023/04/28 11:23:45;;;;;;;;;;;;;;;-144.99;64.44;52299.31;5076445;28;19938;-71
2023/04/28 11:26:11;;;;;;;;;;;;;;;-144.99;64.34;52276.88;5068531;28;19989;-69
2023/04/28 11:28:46;;;;;;;;;;;;;;;-144.99;64.36;52266.69;5069594;28;20492;-70
2023/04/28 11:31:17;;;;;;;;;;;;;;;-144.99;63.86;52260.56;5068375;28;20180;-70
2023/04/28 11:33:45;;;;;;;;;;;;;;;-144.99;64.42;52272.81;5067654;28;19932;-69
2023/04/28 11:36:22;;;;;;;;;;;;;;;-144.99;64.58;52248.34;5065163;28;20338;-69
2023/04/28 11:38:49;;;;;;;;;;;;;;;-144.99;64.70;52309.50;5065176;28;19939;-70
2023/04/28 11:41:15;;;;;;;;;;;;;;;-144.99;64.53;52325.81;5064576;28;19935;-70
2023/04/28 11:43:42;;;;;;;;;;;;;;;-144.99;64.74;52293.19;5066852;28;19977;-69
2023/04/28 11:46:09;;;;;;;;;;;;;;;-144.99;64.79;52285.03;5076098;28;20407;-70
2023/04/28 11:48:37;;;;;;;;;;;;;;;-144.99;65.10;52297.25;5073053;28;20004;-70
2023/04/28 11:51:04;;;;;;;;;;;;;;;-144.99;65.03;52289.13;5076119;28;19928;-70
2023/04/28 11:53:41;;;;;;;;;;;;;;;-144.99;64.99;52346.19;5077986;28;20206;-69
2023/04/28 11:56:07;;;;;;;;;;;;;;;-144.99;65.21;52272.81;5073338;28;20333;-69
2023/04/28 11:58:34;;;;;;;;;;;;;;;-144.99;65.33;52319.69;5087697;28;20339;-69
2023/04/28 12:01:07;;;;;;;;;;;;;;;-144.99;65.21;52325.81;5080380;28;19951;-69
2023/04/28 12:03:33;;;;;;;;;;;;;;;-144.99;65.40;52309.50;5078774;28;20069;-70
2023/04/28 12:06:01;;;;;;;;;;;;;;;-144.99;65.36;52325.81;5068831;28;20354;-68
2023/04/28 12:08:28;;;;;;;;;;;;;;;-144.99;65.58;52297.25;5078787;28;19935;-69
2023/04/28 12:11:08;;;;;;;;;;;;;;;-144.99;65.89;52321.72;5077534;28;19939;-69
2023/04/28 12:13:35;;;;;;;;;;;;;;;-144.99;65.83;52325.81;5069969;28;19932;-70
2023/04/28 12:16:04;;;;;;;;;;;;;;;-144.99;66.23;52358.41;5068546;28;20011;-68
2023/04/28 12:18:31;;;;;;;;;;;;;;;-144.99;66.54;52329.88;5071635;28;19928;-69
2023/04/28 12:20:57;;;;;;;;;;;;;;;-144.99;66.48;52291.16;5074661;28;19970;-68
2023/04/28 12:23:32;;;;;;;;;;;;;;;-144.99;66.70;52329.88;5084622;28;20142;-70
2023/04/28 12:25:59;;;;;;;;;;;;;;;-144.99;66.65;52301.34;5069083;28;19928;-70
2023/04/28 12:28:36;;;;;;;;;;;;;;;-144.99;66.59;52333.94;5084124;28;20005;-70
2023/04/28 12:31:03;;;;;;;;;;;;;;;-144.99;66.34;52333.94;5070817;28;19928;-68